Time;durP1;ratioP1;P1;durP2;ratioP2;P2;SDS_P1;SDS_P2;PMS_P1;PMS_P2;Temp;Humidity;BMP_temperature;BMP_pressure;BME280_temperature;BME280_humidity;BME280_pressure;Samples;Min_cycle;Max_cycle;Signal;HPM_P1;HPM_P2
2022/08/20 00:02:20;;;;;;;9.85;7.28;;;;;;;;;;5096280;28;20051;-79
2022/08/20 00:04:46;;;;;;;8.82;6.00;;;;;;;;;;5096079;28;20024;-79
2022/08/20 00:07:13;;;;;;;13.30;8.13;;;;;;;;;;5096028;28;20016;-79
2022/08/20 00:09:40;;;;;;;9.90;7.82;;;;;;;;;;5095887;28;20095;-79
2022/08/20 00:12:06;;;;;;;10.93;8.15;;;;;;;;;;5095958;28;20462;-79
2022/08/20 00:14:33;;;;;;;12.95;9.98;;;;;;;;;;5095823;28;20032;-79
2022/08/20 00:16:59;;;;;;;11.15;7.57;;;;;;;;;;5095563;28;20112;-79
2022/08/20 00:19:25;;;;;;;11.95;9.07;;;;;;;;;;5095926;28;20431;-79
2022/08/20 00:21:51;;;;;;;17.73;15.82;;;;;;;;;;5095629;28;20023;-78
2022/08/20 00:24:18;;;;;;;12.90;8.93;;;;;;;;;;5095693;28;20035;-79
2022/08/20 00:26:44;;;;;;;10.80;7.57;;;;;;;;;;5095608;28;20059;-79
2022/08/20 00:29:10;;;;;;;9.38;7.07;;;;;;;;;;5095583;28;20471;-79
2022/08/20 00:31:36;;;;;;;13.02;10.35;;;;;;;;;;5095504;28;20103;-79
2022/08/20 00:34:02;;;;;;;17.92;15.15;;;;;;;;;;5095310;28;20394;-79
2022/08/20 00:36:28;;;;;;;13.35;8.60;;;;;;;;;;5095289;28;20020;-79
2022/08/20 00:38:54;;;;;;;12.63;7.43;;;;;;;;;;5095497;28;20020;-79
2022/08/20 00:41:23;;;;;;;10.75;7.00;;;;;;;;;;5095399;28;20519;-79
2022/08/20 00:44:03;;;;;;;9.30;7.50;;;;;;;;;;5095253;28;20034;-79
2022/08/20 00:46:29;;;;;;;14.57;13.00;;;;;;;;;;5095234;28;20082;-79
2022/08/20 00:48:57;;;;;;;9.10;7.18;;;;;;;;;;5094995;28;20059;-79
2022/08/20 00:51:41;;;;;;;9.10;6.90;;;;;;;;;;5095179;28;20024;-79
2022/08/20 00:54:10;;;;;;;11.95;6.40;;;;;;;;;;5095187;28;20051;-79
2022/08/20 00:56:36;;;;;;;8.15;6.93;;;;;;;;;;5094972;28;20034;-79
2022/08/20 00:59:05;;;;;;;10.40;6.82;;;;;;;;;;5094820;28;20111;-79
2022/08/20 01:01:33;;;;;;;8.25;7.10;;;;;;;;;;5094887;28;20066;-79
2022/08/20 01:03:59;;;;;;;12.07;7.80;;;;;;;;;;5094709;28;20020;-79
2022/08/20 01:06:26;;;;;;;8.13;7.35;;;;;;;;;;5094443;28;20031;-79
2022/08/20 01:08:52;;;;;;;6.95;5.80;;;;;;;;;;5094727;28;20012;-79
2022/08/20 01:11:21;;;;;;;7.68;6.53;;;;;;;;;;5094870;28;20425;-79
2022/08/20 01:13:48;;;;;;;7.82;6.60;;;;;;;;;;5094701;28;20028;-79
2022/08/20 01:16:17;;;;;;;6.82;6.13;;;;;;;;;;5094624;28;20067;-79
2022/08/20 01:18:45;;;;;;;8.13;6.63;;;;;;;;;;5094624;28;20016;-79
2022/08/20 01:21:11;;;;;;;7.35;6.47;;;;;;;;;;5094688;28;20023;-79
2022/08/20 01:23:55;;;;;;;8.10;7.05;;;;;;;;;;5094538;28;20421;-79
2022/08/20 01:26:27;;;;;;;9.15;7.72;;;;;;;;;;5094491;28;20023;-79
2022/08/20 01:29:14;;;;;;;9.13;6.65;;;;;;;;;;5094471;28;20024;-79
2022/08/20 01:31:41;;;;;;;9.68;6.93;;;;;;;;;;5094365;28;20031;-79
2022/08/20 01:34:08;;;;;;;7.05;6.28;;;;;;;;;;5094309;28;20035;-78
2022/08/20 01:36:39;;;;;;;7.95;6.07;;;;;;;;;;5094269;28;20033;-79
2022/08/20 01:39:08;;;;;;;10.05;6.47;;;;;;;;;;5094321;28;20020;-78
2022/08/20 01:41:34;;;;;;;8.27;6.55;;;;;;;;;;5094228;28;20024;-78
2022/08/20 01:44:00;;;;;;;7.38;6.38;;;;;;;;;;5094229;28;20375;-78
2022/08/20 01:46:28;;;;;;;7.32;6.57;;;;;;;;;;5094225;28;20099;-79
2022/08/20 01:48:55;;;;;;;8.30;7.07;;;;;;;;;;5094088;28;20052;-79
2022/08/20 01:51:23;;;;;;;7.63;6.93;;;;;;;;;;5094027;28;20031;-79
2022/08/20 01:53:51;;;;;;;7.85;7.15;;;;;;;;;;5094115;28;20016;-79
2022/08/20 01:56:19;;;;;;;8.93;6.68;;;;;;;;;;5094065;28;20107;-79
2022/08/20 01:58:48;;;;;;;8.20;6.40;;;;;;;;;;5093968;28;20024;-79
2022/08/20 02:01:22;;;;;;;11.10;7.97;;;;;;;;;;5093933;28;20027;-79
2022/08/20 02:03:49;;;;;;;8.35;7.57;;;;;;;;;;5093918;28;20024;-79
2022/08/20 02:06:15;;;;;;;9.60;8.85;;;;;;;;;;5093649;28;20420;-79
2022/08/20 02:08:41;;;;;;;8.35;7.20;;;;;;;;;;5093725;28;20440;-79
2022/08/20 02:11:08;;;;;;;8.45;7.35;;;;;;;;;;5096243;28;20105;-78
2022/08/20 02:13:34;;;;;;;8.68;7.78;;;;;;;;;;5103159;28;20017;-79
2022/08/20 02:16:00;;;;;;;9.18;8.32;;;;;;;;;;5102077;28;20034;-79
2022/08/20 02:18:26;;;;;;;8.25;7.30;;;;;;;;;;5104167;28;20387;-79
2022/08/20 02:20:52;;;;;;;12.02;7.15;;;;;;;;;;5103106;28;20110;-79
2022/08/20 02:23:19;;;;;;;9.30;7.35;;;;;;;;;;5101253;28;20024;-79
2022/08/20 02:25:47;;;;;;;8.40;7.10;;;;;;;;;;5104190;28;20019;-79
2022/08/20 02:28:14;;;;;;;8.15;7.00;;;;;;;;;;5101438;28;20364;-79
2022/08/20 02:30:42;;;;;;;10.30;7.40;;;;;;;;;;5104074;28;20462;-79
2022/08/20 02:33:09;;;;;;;7.97;6.75;;;;;;;;;;5103084;28;20031;-79
2022/08/20 02:35:36;;;;;;;8.35;7.45;;;;;;;;;;5101847;28;20036;-79
2022/08/20 02:38:02;;;;;;;9.35;6.93;;;;;;;;;;5103808;28;20538;-79
2022/08/20 02:40:30;;;;;;;9.07;7.05;;;;;;;;;;5102931;28;20020;-79
2022/08/20 02:42:56;;;;;;;10.93;7.47;;;;;;;;;;5100541;28;20035;-79
2022/08/20 02:45:22;;;;;;;8.75;6.78;;;;;;;;;;5103702;28;20026;-79
2022/08/20 02:47:51;;;;;;;10.77;7.28;;;;;;;;;;5102764;28;20044;-79
2022/08/20 02:50:18;;;;;;;8.25;6.95;;;;;;;;;;5101832;28;20052;-79
2022/08/20 02:52:44;;;;;;;8.95;6.75;;;;;;;;;;5104477;28;20016;-79
2022/08/20 02:55:12;;;;;;;9.25;7.30;;;;;;;;;;5102422;28;20059;-79
2022/08/20 02:57:38;;;;;;;9.82;7.15;;;;;;;;;;5103833;28;20019;-78
2022/08/20 03:00:06;;;;;;;7.80;7.00;;;;;;;;;;5101157;28;20398;-79
2022/08/20 03:02:33;;;;;;;8.23;7.07;;;;;;;;;;5093092;28;20348;-79
2022/08/20 03:04:59;;;;;;;8.45;7.60;;;;;;;;;;5093218;28;20056;-79
2022/08/20 03:07:25;;;;;;;8.00;7.20;;;;;;;;;;5093078;28;20099;-79
2022/08/20 03:09:52;;;;;;;11.27;7.97;;;;;;;;;;5095683;28;20028;-79
2022/08/20 03:12:18;;;;;;;10.50;8.13;;;;;;;;;;5103627;28;20467;-79
2022/08/20 03:14:44;;;;;;;10.85;8.77;;;;;;;;;;5098196;28;20114;-79
2022/08/20 03:17:10;;;;;;;19.90;17.83;;;;;;;;;;5093077;28;20043;-79
2022/08/20 03:19:36;;;;;;;13.75;9.48;;;;;;;;;;5093054;28;20021;-79
2022/08/20 03:22:02;;;;;;;10.43;9.48;;;;;;;;;;5093038;28;20028;-79
2022/08/20 03:24:28;;;;;;;9.88;8.23;;;;;;;;;;5092993;28;20116;-79
2022/08/20 03:26:54;;;;;;;8.43;7.57;;;;;;;;;;5092969;28;20027;-79
2022/08/20 03:29:20;;;;;;;9.02;8.13;;;;;;;;;;5095899;28;20028;-78
2022/08/20 03:31:46;;;;;;;8.45;7.57;;;;;;;;;;5096921;28;20031;-78
2022/08/20 03:34:13;;;;;;;17.67;15.93;;;;;;;;;;5096526;28;20050;-79
2022/08/20 03:36:39;;;;;;;17.95;16.25;;;;;;;;;;5096626;28;20059;-79
2022/08/20 03:39:10;;;;;;;12.27;9.85;;;;;;;;;;5096498;28;20108;-79
2022/08/20 03:41:37;;;;;;;11.40;8.80;;;;;;;;;;5096479;28;20020;-78
2022/08/20 03:44:05;;;;;;;8.82;8.05;;;;;;;;;;5096503;28;20417;-79
2022/08/20 03:46:31;;;;;;;11.18;8.57;;;;;;;;;;5096387;28;20016;-79
2022/08/20 03:48:57;;;;;;;9.93;8.43;;;;;;;;;;5096243;28;20055;-79
2022/08/20 03:51:24;;;;;;;9.27;8.48;;;;;;;;;;5096224;28;20028;-79
2022/08/20 03:53:50;;;;;;;8.77;8.02;;;;;;;;;;5096066;28;20399;-78
2022/08/20 03:56:16;;;;;;;9.90;8.90;;;;;;;;;;5096180;28;20047;-79
2022/08/20 03:58:43;;;;;;;10.38;8.65;;;;;;;;;;5096157;28;20542;-79
2022/08/20 04:01:09;;;;;;;10.25;8.25;;;;;;;;;;5095770;28;20554;-79
2022/08/20 04:03:35;;;;;;;16.35;14.70;;;;;;;;;;5096054;28;20032;-79
2022/08/20 04:06:01;;;;;;;22.30;19.90;;;;;;;;;;5095296;28;20028;-78
2022/08/20 04:08:28;;;;;;;26.30;23.67;;;;;;;;;;5095283;28;20099;-78
2022/08/20 04:10:56;;;;;;;22.67;18.08;;;;;;;;;;5096015;28;20020;-79
2022/08/20 04:13:23;;;;;;;12.13;10.90;;;;;;;;;;5095894;28;20387;-79
2022/08/20 04:15:52;;;;;;;9.90;8.40;;;;;;;;;;5095858;28;20036;-79
2022/08/20 04:18:22;;;;;;;17.02;14.68;;;;;;;;;;5095829;28;20027;-78
2022/08/20 04:20:49;;;;;;;12.45;8.73;;;;;;;;;;5094671;28;20020;-78
2022/08/20 04:23:15;;;;;;;9.65;8.52;;;;;;;;;;5095768;28;20030;-78
2022/08/20 04:25:42;;;;;;;10.25;8.38;;;;;;;;;;5095724;28;20562;-78
2022/08/20 04:28:11;;;;;;;9.27;8.38;;;;;;;;;;5095640;28;20032;-78
2022/08/20 04:30:37;;;;;;;13.98;12.43;;;;;;;;;;5095689;28;20399;-79
2022/08/20 04:33:03;;;;;;;9.82;8.85;;;;;;;;;;5095443;28;20017;-79
2022/08/20 04:35:30;;;;;;;10.02;8.30;;;;;;;;;;5095448;28;20029;-78
2022/08/20 04:38:01;;;;;;;9.85;7.38;;;;;;;;;;5095418;28;20020;-78
2022/08/20 04:43:12;;;;;;;11.77;9.18;;;;;;;;;;5095549;28;20039;-78
2022/08/20 04:45:39;;;;;;;11.77;10.52;;;;;;;;;;5095292;28;20103;-78
2022/08/20 04:48:06;;;;;;;10.43;9.38;;;;;;;;;;5095119;28;20077;-78
2022/08/20 04:50:36;;;;;;;11.48;10.38;;;;;;;;;;5095166;28;20024;-78
2022/08/20 04:53:03;;;;;;;10.88;9.20;;;;;;;;;;5095243;28;20023;-78
2022/08/20 04:55:30;;;;;;;12.15;9.30;;;;;;;;;;5090452;28;20368;-78
2022/08/20 04:57:56;;;;;;;12.60;9.32;;;;;;;;;;5094845;28;20104;-78
2022/08/20 05:00:23;;;;;;;11.80;8.85;;;;;;;;;;5095044;28;20444;-78
2022/08/20 05:02:49;;;;;;;11.75;8.57;;;;;;;;;;5094913;28;20099;-78
2022/08/20 05:05:15;;;;;;;8.98;8.02;;;;;;;;;;5094725;28;20360;-78
2022/08/20 05:07:43;;;;;;;12.23;8.77;;;;;;;;;;5094840;28;20028;-77
2022/08/20 05:10:10;;;;;;;12.15;8.80;;;;;;;;;;5094520;28;20486;-78
2022/08/20 05:12:36;;;;;;;10.98;8.80;;;;;;;;;;5094948;28;20028;-77
2022/08/20 05:15:03;;;;;;;10.43;8.65;;;;;;;;;;5094587;28;20055;-77
2022/08/20 05:17:29;;;;;;;8.23;7.38;;;;;;;;;;5094594;28;20099;-77
2022/08/20 05:19:58;;;;;;;9.05;7.40;;;;;;;;;;5094643;28;20024;-78
2022/08/20 05:22:24;;;;;;;9.13;7.70;;;;;;;;;;5094527;28;20027;-78
2022/08/20 05:24:50;;;;;;;9.10;6.88;;;;;;;;;;5094326;28;20077;-77
2022/08/20 05:27:18;;;;;;;8.85;8.00;;;;;;;;;;5094226;28;20039;-78
2022/08/20 05:29:45;;;;;;;9.05;7.70;;;;;;;;;;5104992;28;20035;-77
2022/08/20 05:32:11;;;;;;;9.88;8.05;;;;;;;;;;5103589;28;20153;-77
2022/08/20 05:34:37;;;;;;;9.02;7.55;;;;;;;;;;5103156;28;20023;-77
2022/08/20 05:37:04;;;;;;;8.13;7.28;;;;;;;;;;5104822;28;20056;-78
2022/08/20 05:39:30;;;;;;;7.93;7.15;;;;;;;;;;5103741;28;20023;-78
2022/08/20 05:41:57;;;;;;;8.88;6.93;;;;;;;;;;5102912;28;20042;-78
2022/08/20 05:44:23;;;;;;;8.48;7.40;;;;;;;;;;5114348;28;20489;-78
2022/08/20 05:46:49;;;;;;;12.82;9.75;;;;;;;;;;5114418;28;20066;-78
2022/08/20 05:49:18;;;;;;;12.25;8.93;;;;;;;;;;5114454;28;20023;-77
2022/08/20 05:51:44;;;;;;;12.10;10.95;;;;;;;;;;5114153;28;20084;-77
2022/08/20 05:54:11;;;;;;;20.85;18.67;;;;;;;;;;5108011;28;20453;-78
2022/08/20 05:56:37;;;;;;;13.98;12.00;;;;;;;;;;5102381;28;20019;-78
2022/08/20 05:59:04;;;;;;;8.82;7.93;;;;;;;;;;5103726;28;20069;-78
2022/08/20 06:01:31;;;;;;;9.88;8.27;;;;;;;;;;5110165;28;20034;-77
2022/08/20 06:06:42;;;;;;;9.23;7.40;;;;;;;;;;5114222;28;20038;-76
2022/08/20 06:09:08;;;;;;;8.60;7.00;;;;;;;;;;5110779;28;20027;-77
2022/08/20 06:11:35;;;;;;;8.75;7.88;;;;;;;;;;5110700;28;20085;-78
2022/08/20 06:14:01;;;;;;;7.78;6.45;;;;;;;;;;5114073;28;20027;-78
2022/08/20 06:16:27;;;;;;;8.95;7.15;;;;;;;;;;5113620;28;20032;-78
2022/08/20 06:18:54;;;;;;;11.48;7.40;;;;;;;;;;5113811;28;20096;-77
2022/08/20 06:21:20;;;;;;;8.10;6.88;;;;;;;;;;5113794;28;20019;-77
2022/08/20 06:23:46;;;;;;;8.38;7.55;;;;;;;;;;5113832;28;20022;-76
2022/08/20 06:26:12;;;;;;;11.10;7.80;;;;;;;;;;5110406;28;20042;-76
2022/08/20 06:28:38;;;;;;;8.60;7.40;;;;;;;;;;5102514;28;20016;-77
2022/08/20 06:31:04;;;;;;;8.10;7.30;;;;;;;;;;5101436;28;20046;-77
2022/08/20 06:33:30;;;;;;;11.45;7.80;;;;;;;;;;5104522;28;20042;-76
2022/08/20 06:35:56;;;;;;;9.43;8.10;;;;;;;;;;5101636;28;20032;-77
2022/08/20 06:38:23;;;;;;;11.50;8.85;;;;;;;;;;5103257;28;20492;-78
2022/08/20 06:40:49;;;;;;;9.25;7.82;;;;;;;;;;5106862;28;20098;-78
2022/08/20 06:43:15;;;;;;;10.25;7.45;;;;;;;;;;5095734;28;20059;-77
2022/08/20 06:45:42;;;;;;;8.02;7.32;;;;;;;;;;5093191;28;20028;-78
2022/08/20 06:48:09;;;;;;;7.78;6.88;;;;;;;;;;5100015;28;20093;-78
2022/08/20 06:50:38;;;;;;;8.18;7.47;;;;;;;;;;5097629;28;20028;-79
2022/08/20 06:53:05;;;;;;;8.32;7.45;;;;;;;;;;5093069;28;20035;-79
2022/08/20 06:55:31;;;;;;;10.93;8.23;;;;;;;;;;5092997;28;20067;-78
2022/08/20 06:57:58;;;;;;;9.02;7.90;;;;;;;;;;5093159;28;20031;-78
2022/08/20 07:00:25;;;;;;;9.15;8.10;;;;;;;;;;5093115;28;20446;-78
2022/08/20 07:02:51;;;;;;;8.95;8.05;;;;;;;;;;5093765;28;20024;-77
2022/08/20 07:05:18;;;;;;;10.80;9.43;;;;;;;;;;5096986;28;20035;-79
2022/08/20 07:07:45;;;;;;;10.23;9.05;;;;;;;;;;5097079;28;20036;-79
2022/08/20 07:10:12;;;;;;;14.60;12.93;;;;;;;;;;5096960;28;20471;-78
2022/08/20 07:12:38;;;;;;;11.25;10.25;;;;;;;;;;5096986;28;20016;-78
2022/08/20 07:15:06;;;;;;;10.68;7.72;;;;;;;;;;5096837;28;20399;-78
2022/08/20 07:17:32;;;;;;;7.68;6.88;;;;;;;;;;5097022;28;20077;-78
2022/08/20 07:19:58;;;;;;;8.02;7.22;;;;;;;;;;5096839;28;20028;-77
2022/08/20 07:22:24;;;;;;;8.18;7.38;;;;;;;;;;5096757;28;20487;-78
2022/08/20 07:24:51;;;;;;;7.95;7.13;;;;;;;;;;5096817;28;20107;-78
2022/08/20 07:27:22;;;;;;;7.43;6.80;;;;;;;;;;5096694;28;20099;-77
2022/08/20 07:32:33;;;;;;;8.55;7.47;;;;;;;;;;5096420;28;20081;-77
2022/08/20 07:34:59;;;;;;;9.50;8.50;;;;;;;;;;5096596;28;20471;-77
2022/08/20 07:37:25;;;;;;;7.90;7.18;;;;;;;;;;5096430;28;20413;-77
2022/08/20 07:39:52;;;;;;;8.05;7.13;;;;;;;;;;5096580;28;20023;-77
2022/08/20 07:42:18;;;;;;;8.75;7.22;;;;;;;;;;5096559;28;20016;-77
2022/08/20 07:44:45;;;;;;;8.25;7.38;;;;;;;;;;5096529;28;20447;-77
2022/08/20 07:47:11;;;;;;;8.10;6.93;;;;;;;;;;5099519;28;20052;-77
2022/08/20 07:49:38;;;;;;;10.00;8.30;;;;;;;;;;5116906;28;20030;-77
2022/08/20 07:52:04;;;;;;;7.10;6.50;;;;;;;;;;5116760;28;20043;-77
2022/08/20 07:54:31;;;;;;;6.97;6.28;;;;;;;;;;5116521;28;20087;-77
2022/08/20 07:57:02;;;;;;;7.82;6.43;;;;;;;;;;5116598;28;20088;-77
2022/08/20 07:59:29;;;;;;;6.55;6.05;;;;;;;;;;5116537;28;20012;-77
2022/08/20 08:01:55;;;;;;;7.15;6.47;;;;;;;;;;5116451;28;20374;-78
2022/08/20 08:04:23;;;;;;;7.10;6.10;;;;;;;;;;5116451;28;20024;-78
2022/08/20 08:06:49;;;;;;;7.32;6.50;;;;;;;;;;5116473;28;20085;-77
2022/08/20 08:09:15;;;;;;;6.60;6.03;;;;;;;;;;5116398;28;20525;-77
2022/08/20 08:11:44;;;;;;;8.68;7.25;;;;;;;;;;5116235;28;20535;-77
2022/08/20 08:14:10;;;;;;;10.55;7.18;;;;;;;;;;5114405;28;20394;-77
2022/08/20 08:16:37;;;;;;;7.20;6.60;;;;;;;;;;5112832;28;20032;-78
2022/08/20 08:19:05;;;;;;;8.13;6.15;;;;;;;;;;5104222;28;20027;-77
2022/08/20 08:21:31;;;;;;;7.82;7.05;;;;;;;;;;5100483;28;20032;-77
2022/08/20 08:23:58;;;;;;;6.95;6.30;;;;;;;;;;5104404;28;20020;-78
2022/08/20 08:26:25;;;;;;;7.30;6.53;;;;;;;;;;5103939;28;20077;-78
2022/08/20 08:28:51;;;;;;;9.77;7.07;;;;;;;;;;5106215;28;20020;-79
2022/08/20 08:31:17;;;;;;;7.28;6.65;;;;;;;;;;5101632;28;20016;-78
2022/08/20 08:33:43;;;;;;;7.50;6.70;;;;;;;;;;5105210;28;20105;-77
2022/08/20 08:36:13;;;;;;;8.20;7.53;;;;;;;;;;5105771;28;20062;-77
2022/08/20 08:38:41;;;;;;;7.22;6.53;;;;;;;;;;5102191;28;20020;-77
2022/08/20 08:41:28;;;;;;;6.43;5.80;;;;;;;;;;5104284;28;20019;-78
2022/08/20 08:44:04;;;;;;;7.00;6.40;;;;;;;;;;5105614;28;20019;-79
2022/08/20 08:46:32;;;;;;;6.90;5.68;;;;;;;;;;5105853;28;20149;-79
2022/08/20 08:49:01;;;;;;;7.53;6.82;;;;;;;;;;5101293;28;20051;-78
2022/08/20 08:51:35;;;;;;;6.40;5.88;;;;;;;;;;5104909;28;20461;-79
2022/08/20 08:54:01;;;;;;;;;;;;;;;;;;5102533;28;20448;-78
2022/08/20 08:56:29;;;;;;;7.22;6.32;;;;;;;;;;5104278;28;20370;-80
2022/08/20 08:58:57;;;;;;;7.35;6.57;;;;;;;;;;5105530;28;20069;-78
2022/08/20 09:01:24;;;;;;;6.82;6.18;;;;;;;;;;5104633;28;20077;-79
2022/08/20 09:03:50;;;;;;;9.25;6.75;;;;;;;;;;5102344;28;20016;-79
2022/08/20 09:06:22;;;;;;;6.40;5.82;;;;;;;;;;5105962;28;20391;-79
2022/08/20 09:08:48;;;;;;;6.68;6.07;;;;;;;;;;5103692;28;20020;-78
2022/08/20 09:11:15;;;;;;;7.07;6.30;;;;;;;;;;5105371;28;20421;-79
2022/08/20 09:13:42;;;;;;;6.97;6.38;;;;;;;;;;5103765;28;20069;-79
2022/08/20 09:16:08;;;;;;;7.90;6.68;;;;;;;;;;5103623;28;20038;-78
2022/08/20 09:18:34;;;;;;;7.38;6.25;;;;;;;;;;5105174;28;20041;-80
2022/08/20 09:21:00;;;;;;;6.00;5.50;;;;;;;;;;5103652;28;20023;-79
2022/08/20 09:23:27;;;;;;;8.00;6.75;;;;;;;;;;5103843;28;20020;-79
2022/08/20 09:25:53;;;;;;;7.80;6.40;;;;;;;;;;5093863;28;20030;-79
2022/08/20 09:28:19;;;;;;;7.03;5.90;;;;;;;;;;5094555;28;20096;-77
2022/08/20 09:30:45;;;;;;;6.70;6.18;;;;;;;;;;5094412;28;20028;-79
2022/08/20 09:33:11;;;;;;;7.40;6.70;;;;;;;;;;5094463;28;20024;-78
2022/08/20 09:35:39;;;;;;;9.18;7.13;;;;;;;;;;5094319;28;20463;-79
2022/08/20 09:38:05;;;;;;;10.15;6.82;;;;;;;;;;5093837;28;20016;-79
2022/08/20 09:40:31;;;;;;;9.15;8.35;;;;;;;;;;5094289;28;20098;-78
2022/08/20 09:42:57;;;;;;;11.90;10.70;;;;;;;;;;5094046;28;20090;-79
2022/08/20 09:45:23;;;;;;;7.47;6.78;;;;;;;;;;5094129;28;20016;-79
2022/08/20 09:47:50;;;;;;;7.57;6.30;;;;;;;;;;5093751;28;20044;-79
2022/08/20 09:50:16;;;;;;;6.90;6.25;;;;;;;;;;5094089;28;20024;-79
2022/08/20 09:52:45;;;;;;;8.07;7.13;;;;;;;;;;5093998;28;20482;-79
2022/08/20 09:55:30;;;;;;;8.13;6.38;;;;;;;;;;5093897;28;20028;-78
2022/08/20 09:57:56;;;;;;;8.10;7.03;;;;;;;;;;5094052;28;20074;-78
2022/08/20 10:00:22;;;;;;;6.75;6.15;;;;;;;;;;5093950;28;20024;-78
2022/08/20 10:02:48;;;;;;;7.95;6.75;;;;;;;;;;5093765;28;20418;-78
2022/08/20 10:05:14;;;;;;;13.75;7.30;;;;;;;;;;5093940;28;20027;-79
2022/08/20 10:07:41;;;;;;;6.95;6.35;;;;;;;;;;5093862;28;20432;-78
2022/08/20 10:10:09;;;;;;;7.20;6.57;;;;;;;;;;5093840;28;20458;-79
2022/08/20 10:12:35;;;;;;;7.18;6.53;;;;;;;;;;5093788;28;20483;-79
2022/08/20 10:15:01;;;;;;;7.93;7.25;;;;;;;;;;5093400;28;20048;-79
2022/08/20 10:17:27;;;;;;;9.57;6.88;;;;;;;;;;5093678;28;20028;-79
2022/08/20 10:19:53;;;;;;;7.68;6.43;;;;;;;;;;5093578;28;20029;-78
2022/08/20 10:22:19;;;;;;;9.38;6.60;;;;;;;;;;5093660;28;20024;-80
2022/08/20 10:24:46;;;;;;;7.25;6.55;;;;;;;;;;5101512;28;20031;-78
2022/08/20 10:27:12;;;;;;;7.47;6.57;;;;;;;;;;5103912;28;20492;-78
2022/08/20 10:29:38;;;;;;;7.05;6.25;;;;;;;;;;5095969;28;20510;-79
2022/08/20 10:32:10;;;;;;;8.00;7.20;;;;;;;;;;5112695;28;20037;-80
2022/08/20 10:34:36;;;;;;;8.45;7.38;;;;;;;;;;5113545;28;20118;-77
2022/08/20 10:37:02;;;;;;;7.53;6.82;;;;;;;;;;5114954;28;20106;-79
2022/08/20 10:39:29;;;;;;;9.00;7.10;;;;;;;;;;5118150;28;20041;-78
2022/08/20 10:41:55;;;;;;;7.72;7.13;;;;;;;;;;5118130;28;20023;-78
2022/08/20 10:44:21;;;;;;;7.50;6.80;;;;;;;;;;5117994;28;20055;-79
2022/08/20 10:46:47;;;;;;;7.82;7.00;;;;;;;;;;5079166;28;20093;-78
2022/08/20 10:49:13;;;;;;;9.60;6.28;;;;;;;;;;5077277;28;20028;-78
2022/08/20 10:51:39;;;;;;;6.78;6.10;;;;;;;;;;5075672;28;20436;-78
2022/08/20 10:54:05;;;;;;;7.72;7.07;;;;;;;;;;5077129;28;20020;-78
2022/08/20 10:56:31;;;;;;;7.22;6.40;;;;;;;;;;5077102;28;20037;-80
2022/08/20 10:58:58;;;;;;;8.40;7.03;;;;;;;;;;5076988;28;20020;-78
2022/08/20 11:01:24;;;;;;;6.53;5.95;;;;;;;;;;5077054;28;20021;-78
2022/08/20 11:03:50;;;;;;;7.05;6.40;;;;;;;;;;5077130;28;20376;-78
2022/08/20 11:06:16;;;;;;;7.90;7.20;;;;;;;;;;5076981;28;20025;-78
2022/08/20 11:08:42;;;;;;;8.20;7.50;;;;;;;;;;5076908;28;20023;-78
2022/08/20 11:11:08;;;;;;;7.85;7.13;;;;;;;;;;5076912;28;20082;-78
2022/08/20 11:13:35;;;;;;;8.40;6.80;;;;;;;;;;5076645;28;20052;-78
2022/08/20 11:16:01;;;;;;;9.68;7.80;;;;;;;;;;5076737;28;20044;-78
2022/08/20 11:18:28;;;;;;;7.88;6.88;;;;;;;;;;5076643;28;20022;-79
2022/08/20 11:20:57;;;;;;;8.00;7.20;;;;;;;;;;5076716;28;20378;-77
2022/08/20 11:23:23;;;;;;;7.72;7.00;;;;;;;;;;5076931;28;20058;-78
2022/08/20 11:25:49;;;;;;;7.68;6.88;;;;;;;;;;5076568;28;20029;-77
2022/08/20 11:28:16;;;;;;;7.10;6.50;;;;;;;;;;5076583;28;20027;-77
2022/08/20 11:30:43;;;;;;;7.43;6.82;;;;;;;;;;5076327;28;20021;-78
2022/08/20 11:33:09;;;;;;;9.40;7.82;;;;;;;;;;5076323;28;20435;-78
2022/08/20 11:35:36;;;;;;;7.78;7.07;;;;;;;;;;5076219;28;20120;-78
2022/08/20 11:38:02;;;;;;;9.80;8.02;;;;;;;;;;5076311;28;20021;-77
2022/08/20 11:40:30;;;;;;;9.75;7.05;;;;;;;;;;5086960;28;20394;-79
2022/08/20 11:42:56;;;;;;;8.63;7.82;;;;;;;;;;5107152;28;20015;-81
2022/08/20 11:45:22;;;;;;;8.52;7.30;;;;;;;;;;5100096;28;20087;-82
2022/08/20 11:47:48;;;;;;;8.85;7.78;;;;;;;;;;5075758;28;20396;-78
2022/08/20 11:50:19;;;;;;;10.27;7.68;;;;;;;;;;5080201;28;20024;-78
2022/08/20 11:52:45;;;;;;;8.82;7.93;;;;;;;;;;5094506;28;20038;-78
2022/08/20 11:55:12;;;;;;;9.88;7.97;;;;;;;;;;5096177;28;20039;-78
2022/08/20 11:57:41;;;;;;;8.05;7.18;;;;;;;;;;5096277;28;20107;-78
2022/08/20 12:00:11;;;;;;;9.57;7.78;;;;;;;;;;5095713;28;20035;-77
2022/08/20 12:02:37;;;;;;;8.43;7.63;;;;;;;;;;5088986;28;20032;-78
2022/08/20 12:05:04;;;;;;;8.85;7.97;;;;;;;;;;5075842;28;20031;-77
2022/08/20 12:07:30;;;;;;;9.75;8.65;;;;;;;;;;5075810;28;20074;-78
2022/08/20 12:09:56;;;;;;;9.57;8.48;;;;;;;;;;5076270;28;20078;-78
2022/08/20 12:12:22;;;;;;;10.65;8.40;;;;;;;;;;5084522;28;20054;-78
2022/08/20 12:14:49;;;;;;;10.52;9.52;;;;;;;;;;5096030;28;20108;-77
2022/08/20 12:17:22;;;;;;;9.43;8.52;;;;;;;;;;5086663;28;20028;-78
2022/08/20 12:19:48;;;;;;;10.02;8.57;;;;;;;;;;5086262;28;20060;-79
2022/08/20 12:22:14;;;;;;;9.50;8.35;;;;;;;;;;5092974;28;20034;-78
2022/08/20 12:24:40;;;;;;;10.95;8.35;;;;;;;;;;5091633;28;20030;-78
2022/08/20 12:27:11;;;;;;;10.68;8.75;;;;;;;;;;5075627;28;20035;-78
2022/08/20 12:29:41;;;;;;;10.13;8.52;;;;;;;;;;5075314;28;20046;-77
2022/08/20 12:32:07;;;;;;;13.20;8.52;;;;;;;;;;5075388;28;20103;-77
2022/08/20 12:34:34;;;;;;;10.70;7.97;;;;;;;;;;5075203;28;20107;-77
2022/08/20 12:37:06;;;;;;;9.82;8.07;;;;;;;;;;5080498;28;20031;-80
2022/08/20 12:39:33;;;;;;;8.98;8.18;;;;;;;;;;5095470;28;20024;-79
2022/08/20 12:42:01;;;;;;;8.52;7.68;;;;;;;;;;5095459;28;20479;-79
2022/08/20 12:44:28;;;;;;;10.07;9.00;;;;;;;;;;5095292;28;20051;-79
2022/08/20 12:47:07;;;;;;;9.80;8.85;;;;;;;;;;5093780;28;20115;-79
2022/08/20 12:49:33;;;;;;;8.85;7.90;;;;;;;;;;5095216;28;20032;-78
2022/08/20 12:51:59;;;;;;;8.90;8.05;;;;;;;;;;5095121;28;20024;-78
2022/08/20 12:54:25;;;;;;;8.73;7.75;;;;;;;;;;5094978;28;20554;-78
2022/08/20 12:56:51;;;;;;;9.05;8.20;;;;;;;;;;5090784;28;20515;-78
2022/08/20 12:59:18;;;;;;;8.77;7.95;;;;;;;;;;5074659;28;20029;-78
2022/08/20 13:01:44;;;;;;;9.43;8.43;;;;;;;;;;5077244;28;20016;-78
2022/08/20 13:04:10;;;;;;;8.90;8.18;;;;;;;;;;5094812;28;20517;-78
2022/08/20 13:06:36;;;;;;;8.32;7.70;;;;;;;;;;5093518;28;20471;-79
2022/08/20 13:09:02;;;;;;;10.32;9.32;;;;;;;;;;5094831;28;20031;-78
2022/08/20 13:11:28;;;;;;;9.52;8.63;;;;;;;;;;5094725;28;20111;-79
2022/08/20 13:13:54;;;;;;;9.70;8.63;;;;;;;;;;5085129;28;20344;-78
2022/08/20 13:16:20;;;;;;;8.90;8.10;;;;;;;;;;5074323;28;20036;-78
2022/08/20 13:18:46;;;;;;;9.93;8.90;;;;;;;;;;5074575;28;20035;-78
2022/08/20 13:21:13;;;;;;;8.50;7.75;;;;;;;;;;5075159;28;20392;-78
2022/08/20 13:23:39;;;;;;;9.27;8.48;;;;;;;;;;5081057;28;20035;-78
2022/08/20 13:26:05;;;;;;;9.80;7.50;;;;;;;;;;5109922;28;20489;-83
2022/08/20 13:28:31;;;;;;;9.07;7.55;;;;;;;;;;5104311;28;20552;-80
2022/08/20 13:30:57;;;;;;;8.60;7.38;;;;;;;;;;5092660;28;20094;-79
2022/08/20 13:36:08;;;;;;;8.93;8.02;;;;;;;;;;5094243;28;20046;-79
2022/08/20 13:38:34;;;;;;;8.77;7.88;;;;;;;;;;5094330;28;20142;-78
2022/08/20 13:41:57;;;;;;;10.38;7.82;;;;;;;;;;5094092;28;20081;-79
2022/08/20 13:44:27;;;;;;;8.95;7.60;;;;;;;;;;5012307;28;20493;-79
2022/08/20 13:46:53;;;;;;;9.50;7.10;;;;;;;;;;5012025;28;20064;-79
2022/08/20 13:49:20;;;;;;;7.90;7.20;;;;;;;;;;5065029;28;20068;-79
2022/08/20 13:51:46;;;;;;;8.93;8.02;;;;;;;;;;5093816;28;20039;-79
2022/08/20 13:54:12;;;;;;;7.57;6.97;;;;;;;;;;5093956;28;20043;-79
2022/08/20 13:56:38;;;;;;;9.68;7.90;;;;;;;;;;5094207;28;20077;-79
2022/08/20 13:59:04;;;;;;;8.68;7.88;;;;;;;;;;5094004;28;20054;-80
2022/08/20 14:01:30;;;;;;;9.13;8.10;;;;;;;;;;5104679;28;20034;-80
2022/08/20 14:03:56;;;;;;;8.75;7.95;;;;;;;;;;5114331;28;20019;-79
2022/08/20 14:06:22;;;;;;;8.70;7.80;;;;;;;;;;5098553;28;20031;-79
2022/08/20 14:08:48;;;;;;;8.98;8.10;;;;;;;;;;5093938;28;20032;-79
2022/08/20 14:11:14;;;;;;;9.43;8.52;;;;;;;;;;5105812;28;20066;-79
2022/08/20 14:13:40;;;;;;;8.20;7.50;;;;;;;;;;5113734;28;20027;-79
2022/08/20 14:16:07;;;;;;;9.82;8.55;;;;;;;;;;5075773;28;20052;-80
2022/08/20 14:18:33;;;;;;;8.57;7.78;;;;;;;;;;5073566;28;20028;-79
2022/08/20 14:20:59;;;;;;;9.73;7.85;;;;;;;;;;5073687;28;20365;-79
2022/08/20 14:23:25;;;;;;;8.52;7.70;;;;;;;;;;5073414;28;20025;-78
2022/08/20 14:25:51;;;;;;;11.98;10.98;;;;;;;;;;5074412;28;20099;-80
2022/08/20 14:28:18;;;;;;;8.85;8.10;;;;;;;;;;5073363;28;20020;-78
2022/08/20 14:30:45;;;;;;;8.77;7.88;;;;;;;;;;5073269;28;20028;-79
2022/08/20 14:33:11;;;;;;;7.90;7.15;;;;;;;;;;5073355;28;20048;-78
2022/08/20 14:35:37;;;;;;;8.20;7.40;;;;;;;;;;5073185;28;20037;-78
2022/08/20 14:38:04;;;;;;;8.05;7.40;;;;;;;;;;5073369;28;20021;-79
2022/08/20 14:40:30;;;;;;;9.10;8.25;;;;;;;;;;5086508;28;20376;-78
2022/08/20 14:42:56;;;;;;;10.90;9.85;;;;;;;;;;5093439;28;20082;-77
2022/08/20 14:45:23;;;;;;;12.65;7.85;;;;;;;;;;5093386;28;20467;-77
2022/08/20 14:47:50;;;;;;;10.05;6.15;;;;;;;;;;5093331;28;20071;-79
2022/08/20 14:50:18;;;;;;;74.95;12.55;;;;;;;;;;5093375;28;20052;-78